createdAt,value
2022-10-08T00:01:08.461Z,101667.31
2022-10-08T00:03:37.608Z,101698.97
2022-10-08T00:06:05.994Z,101720.06
2022-10-08T00:08:36.731Z,101746.88
2022-10-08T00:11:06.586Z,101745.34
2022-10-08T00:13:41.214Z,101744.34
2022-10-08T00:16:12.339Z,101746.63
2022-10-08T00:18:41.143Z,101745.63
2022-10-08T00:21:16.390Z,101737.34
2022-10-08T00:23:45.095Z,101737.72
2022-10-08T00:26:11.610Z,101728.00
2022-10-08T00:28:42.013Z,101734.03
2022-10-08T00:31:21.167Z,101740.69
2022-10-08T00:33:53.911Z,101735.88
2022-10-08T00:36:21.339Z,101730.69
2022-10-08T00:38:49.379Z,101726.31
2022-10-08T00:41:22.091Z,101733.88
2022-10-08T00:43:54.694Z,101724.84
2022-10-08T00:46:41.545Z,101728.50
2022-10-08T00:49:11.531Z,101719.91
2022-10-08T00:51:47.629Z,101710.50
2022-10-08T00:54:14.790Z,101712.59
2022-10-08T00:56:42.226Z,101704.75
2022-10-08T00:59:10.953Z,101697.41
2022-10-08T01:04:11.655Z,101697.91
2022-10-08T01:06:45.216Z,101704.56
2022-10-08T01:09:33.666Z,101693.19
2022-10-08T01:12:10.408Z,101700.88
2022-10-08T01:14:39.774Z,101701.00
2022-10-08T01:17:10.411Z,101704.06
2022-10-08T01:20:00.609Z,101711.03
2022-10-08T01:23:04.455Z,101715.09
2022-10-08T01:25:49.658Z,101720.34
2022-10-08T01:28:32.104Z,101735.81
2022-10-08T01:31:08.359Z,101731.00
2022-10-08T01:33:42.916Z,101729.69
2022-10-08T01:36:12.218Z,101716.94
2022-10-08T01:38:45.068Z,101729.53
2022-10-08T01:41:14.513Z,101719.97
2022-10-08T01:43:46.401Z,101724.94
2022-10-08T01:46:21.106Z,101721.22
2022-10-08T01:48:51.953Z,101711.38
2022-10-08T01:51:23.654Z,101723.72
2022-10-08T01:53:52.173Z,101714.50
2022-10-08T01:56:24.717Z,101726.09
2022-10-08T01:59:15.029Z,101729.09
2022-10-08T02:01:59.915Z,101737.34
2022-10-08T02:04:33.197Z,101738.00
2022-10-08T02:07:14.563Z,101736.41
2022-10-08T02:10:14.921Z,101743.19
2022-10-08T02:12:42.808Z,101741.66
2022-10-08T02:15:14.153Z,101743.53
2022-10-08T02:18:07.743Z,101755.06
2022-10-08T02:20:42.687Z,101741.66
2022-10-08T02:23:26.201Z,101754.41
2022-10-08T02:25:59.794Z,101749.22
2022-10-08T02:28:45.897Z,101738.38
2022-10-08T02:31:18.499Z,101754.41
2022-10-08T02:33:54.440Z,101755.94
2022-10-08T02:36:28.347Z,101757.25
2022-10-08T02:38:58.936Z,101755.94
2022-10-08T02:41:31.632Z,101756.66
2022-10-08T02:44:03.140Z,101748.66
2022-10-08T02:46:35.795Z,101750.31
2022-10-08T02:49:06.627Z,101754.41
2022-10-08T02:51:38.167Z,101751.28
2022-10-08T02:54:06.969Z,101746.75
2022-10-08T02:56:50.033Z,101748.34
2022-10-08T02:59:18.975Z,101748.16
2022-10-08T03:01:50.263Z,101756.75
2022-10-08T03:04:32.208Z,101765.97
2022-10-08T03:07:00.173Z,101763.53
2022-10-08T03:09:33.275Z,101765.56
2022-10-08T03:12:00.436Z,101766.31
2022-10-08T03:14:28.002Z,101761.69
2022-10-08T03:16:54.652Z,101765.22
2022-10-08T03:19:21.696Z,101767.00
2022-10-08T03:21:52.316Z,101758.28
2022-10-08T03:24:18.923Z,101768.25
2022-10-08T03:26:45.469Z,101774.97
2022-10-08T03:29:12.089Z,101778.25
2022-10-08T03:31:38.628Z,101772.34
2022-10-08T03:34:05.554Z,101794.00
2022-10-08T03:36:32.278Z,101793.19
2022-10-08T03:38:58.799Z,101787.59
2022-10-08T03:41:25.606Z,101797.56
2022-10-08T03:43:52.250Z,101802.63
2022-10-08T03:46:19.010Z,101786.53
2022-10-08T03:48:48.705Z,101809.38
2022-10-08T03:51:16.271Z,101795.91
2022-10-08T03:53:43.732Z,101806.28
2022-10-08T03:56:19.550Z,101813.78
2022-10-08T03:58:47.391Z,101817.53
2022-10-08T04:01:16.120Z,101807.38
2022-10-08T04:03:43.524Z,101820.94
2022-10-08T04:06:10.028Z,101820.50
2022-10-08T04:08:36.751Z,101815.78
2022-10-08T04:11:08.351Z,101799.53
2022-10-08T04:13:36.733Z,101819.19
2022-10-08T04:16:15.292Z,101828.38
2022-10-08T04:18:42.710Z,101827.75
2022-10-08T04:21:11.950Z,101831.78
2022-10-08T04:23:40.087Z,101820.53
2022-10-08T04:26:07.226Z,101814.47
2022-10-08T04:28:38.436Z,101818.13
2022-10-08T04:31:10.381Z,101824.81
2022-10-08T04:33:37.290Z,101828.03
2022-10-08T04:36:08.590Z,101831.00
2022-10-08T04:38:35.156Z,101831.25
2022-10-08T04:41:12.935Z,101832.03
2022-10-08T04:43:40.917Z,101832.69
2022-10-08T04:46:10.259Z,101824.22
2022-10-08T04:48:37.521Z,101835.75
2022-10-08T04:51:10.270Z,101847.69
2022-10-08T04:53:38.079Z,101848.13
2022-10-08T04:56:10.769Z,101854.84
2022-10-08T04:58:37.315Z,101851.19
2022-10-08T05:01:08.637Z,101848.50
2022-10-08T05:03:40.177Z,101857.69
2022-10-08T05:06:07.683Z,101858.84
2022-10-08T05:08:35.043Z,101864.78
2022-10-08T05:11:01.610Z,101866.28
2022-10-08T05:13:28.602Z,101874.59
2022-10-08T05:15:55.328Z,101870.81
2022-10-08T05:18:23.001Z,101867.94
2022-10-08T05:20:49.741Z,101878.78
2022-10-08T05:23:16.312Z,101871.00
2022-10-08T05:25:43.034Z,101883.59
2022-10-08T05:28:09.650Z,101880.66
2022-10-08T05:30:36.217Z,101870.63
2022-10-08T05:33:02.822Z,101888.50
2022-10-08T05:35:29.397Z,101885.53
2022-10-08T05:37:55.965Z,101871.63
2022-10-08T05:40:24.261Z,101888.03
2022-10-08T05:42:50.984Z,101889.47
2022-10-08T05:45:17.736Z,101885.47
2022-10-08T05:47:44.244Z,101898.75
2022-10-08T05:50:10.743Z,101897.47
2022-10-08T05:52:37.219Z,101902.22
2022-10-08T05:55:04.005Z,101908.13
2022-10-08T05:57:30.599Z,101913.97
2022-10-08T05:59:57.119Z,101914.69
2022-10-08T06:02:23.638Z,101915.28
2022-10-08T06:04:50.361Z,101923.78
2022-10-08T06:07:17.191Z,101924.84
2022-10-08T06:09:45.126Z,101925.44
2022-10-08T06:12:12.763Z,101932.94
2022-10-08T06:14:40.167Z,101926.47
2022-10-08T06:17:06.684Z,101942.72
2022-10-08T06:19:35.253Z,101947.91
2022-10-08T06:22:01.795Z,101954.41
2022-10-08T06:24:28.281Z,101955.53
2022-10-08T06:26:54.877Z,101954.41
2022-10-08T06:29:22.442Z,101964.50
2022-10-08T06:31:49.219Z,101961.28
2022-10-08T06:34:16.095Z,101971.47
2022-10-08T06:36:42.702Z,101967.97
2022-10-08T06:39:14.287Z,101972.34
2022-10-08T06:41:40.836Z,101967.44
2022-10-08T06:44:12.750Z,101978.31
2022-10-08T06:46:39.625Z,101978.13
2022-10-08T06:49:07.045Z,101983.53
2022-10-08T06:51:34.409Z,101982.84
2022-10-08T06:54:07.350Z,101978.94
2022-10-08T06:56:36.216Z,101987.78
2022-10-08T06:59:04.640Z,101995.94
2022-10-08T07:01:33.607Z,101998.56
2022-10-08T07:04:01.956Z,101989.81
2022-10-08T07:06:29.064Z,101980.59
2022-10-08T07:08:58.663Z,101997.25
2022-10-08T07:11:26.184Z,101988.13
2022-10-08T07:13:54.658Z,101996.03
2022-10-08T07:16:23.557Z,101994.06
2022-10-08T07:18:51.501Z,101994.38
2022-10-08T07:21:19.768Z,101994.19
2022-10-08T07:23:46.327Z,101994.75
2022-10-08T07:26:12.858Z,101992.31
2022-10-08T07:28:42.491Z,101992.88
2022-10-08T07:31:14.210Z,101986.97
2022-10-08T07:33:41.283Z,101980.59
2022-10-08T07:36:16.435Z,101973.06
2022-10-08T07:38:43.251Z,101974.47
2022-10-08T07:41:12.029Z,101983.09
2022-10-08T07:43:41.320Z,101983.81
2022-10-08T07:46:09.251Z,101978.16
2022-10-08T07:48:38.638Z,101988.94
2022-10-08T07:51:16.288Z,101992.91
2022-10-08T07:53:43.729Z,102003.22
2022-10-08T07:56:12.818Z,102004.44
2022-10-08T07:58:39.485Z,101995.75
2022-10-08T08:01:08.863Z,102003.13
2022-10-08T08:03:35.672Z,102000.81
2022-10-08T08:06:04.774Z,102002.97
2022-10-08T08:08:31.672Z,102012.34
2022-10-08T08:10:59.688Z,102000.72
2022-10-08T08:13:34.322Z,102009.72
2022-10-08T08:16:10.937Z,102017.50
2022-10-08T08:18:40.145Z,102010.69
2022-10-08T08:21:28.272Z,102007.41
2022-10-08T08:23:56.757Z,102019.94
2022-10-08T08:26:26.476Z,102024.16
2022-10-08T08:28:54.969Z,102026.59
2022-10-08T08:31:24.354Z,102025.47
2022-10-08T08:33:53.946Z,102027.34
2022-10-08T08:36:25.254Z,102043.59
2022-10-08T08:38:52.151Z,102032.66
2022-10-08T08:41:28.071Z,102056.06
2022-10-08T08:44:00.006Z,102050.03
2022-10-08T08:46:30.940Z,102053.91
2022-10-08T08:49:03.924Z,102050.06
2022-10-08T08:51:31.528Z,102049.84
2022-10-08T08:53:58.162Z,102057.63
2022-10-08T08:56:24.751Z,102059.34
2022-10-08T08:59:00.386Z,102067.53
2022-10-08T09:01:36.022Z,102060.97
2022-10-08T09:04:14.143Z,102070.47
2022-10-08T09:06:41.671Z,102060.31
2022-10-08T09:09:23.460Z,102064.59
2022-10-08T09:11:50.784Z,102065.41
2022-10-08T09:14:42.833Z,102064.38
2022-10-08T09:17:18.997Z,102078.09
2022-10-08T09:19:46.792Z,102079.09
2022-10-08T09:22:21.518Z,102079.88
2022-10-08T09:24:52.128Z,102071.97
2022-10-08T09:27:19.335Z,102089.72
2022-10-08T09:29:46.017Z,102090.13
2022-10-08T09:32:18.285Z,102098.09
2022-10-08T09:34:46.174Z,102097.72
2022-10-08T09:37:22.068Z,102104.69
2022-10-08T09:40:28.337Z,102112.75
2022-10-08T09:43:17.546Z,102114.13
2022-10-08T09:45:48.824Z,102113.28
2022-10-08T09:48:18.277Z,102112.41
2022-10-08T09:51:16.066Z,102114.97
2022-10-08T09:53:50.599Z,102116.00
2022-10-08T09:56:27.655Z,102112.59
2022-10-08T09:58:56.523Z,102121.63
2022-10-08T10:01:25.280Z,102126.91
2022-10-08T10:04:02.002Z,102130.41
2022-10-08T10:06:34.945Z,102131.16
2022-10-08T10:09:36.726Z,102127.44
2022-10-08T10:12:06.370Z,102142.34
2022-10-08T10:14:45.029Z,102134.03
2022-10-08T10:17:40.846Z,102148.19
2022-10-08T10:20:20.448Z,102140.91
2022-10-08T10:23:12.117Z,102144.28
2022-10-08T10:25:44.928Z,102145.06
2022-10-08T10:28:20.798Z,102145.84
2022-10-08T10:30:59.757Z,102158.91
2022-10-08T10:33:32.394Z,102143.84
2022-10-08T10:36:04.718Z,102147.41
2022-10-08T10:38:43.317Z,102155.31
2022-10-08T10:41:34.067Z,102162.41
2022-10-08T10:44:11.352Z,102152.44
2022-10-08T10:46:45.200Z,102156.34
2022-10-08T10:49:15.907Z,102164.69
2022-10-08T10:52:08.769Z,102166.91
2022-10-08T10:54:47.094Z,102162.50
2022-10-08T10:57:52.448Z,102172.22
2022-10-08T11:00:37.748Z,102166.63
2022-10-08T11:03:13.263Z,102175.59
2022-10-08T11:05:42.093Z,102172.03
2022-10-08T11:08:11.747Z,102176.31
2022-10-08T11:11:09.498Z,102172.16
2022-10-08T11:14:01.172Z,102172.44
2022-10-08T11:16:37.871Z,102175.34
2022-10-08T11:19:11.904Z,102179.19
2022-10-08T11:22:10.286Z,102180.34
2022-10-08T11:24:45.667Z,102177.53
2022-10-08T11:27:30.080Z,102170.28
2022-10-08T11:30:06.335Z,102169.06
2022-10-08T11:32:33.989Z,102166.78
2022-10-08T11:35:12.622Z,102172.41
2022-10-08T11:38:07.453Z,102178.84
2022-10-08T11:40:34.000Z,102172.78
2022-10-08T11:43:18.962Z,102181.09
2022-10-08T11:45:46.451Z,102177.25
2022-10-08T11:48:34.111Z,102184.88
2022-10-08T11:51:18.862Z,102187.44
2022-10-08T11:54:00.452Z,102183.44
2022-10-08T11:56:27.079Z,102187.34
2022-10-08T11:58:56.596Z,102181.94
2022-10-08T12:01:24.168Z,102188.59
2022-10-08T12:04:05.308Z,102190.78
2022-10-08T12:06:34.630Z,102180.53
2022-10-08T12:09:02.624Z,102179.84
2022-10-08T12:11:32.180Z,102184.47
2022-10-08T12:14:17.136Z,102185.25
2022-10-08T12:16:56.000Z,102187.13
2022-10-08T12:19:34.788Z,102191.44
2022-10-08T12:22:04.081Z,102180.66
2022-10-08T12:24:39.702Z,102184.41
2022-10-08T12:27:18.191Z,102187.94
2022-10-08T12:29:56.860Z,102191.66
2022-10-08T12:32:41.403Z,102198.00
2022-10-08T12:35:40.590Z,102189.72
2022-10-08T12:38:29.908Z,102194.06
2022-10-08T12:41:02.434Z,102197.66
2022-10-08T12:44:00.050Z,102198.97
2022-10-08T12:46:49.447Z,102202.97
2022-10-08T12:49:34.882Z,102187.94
2022-10-08T12:52:21.018Z,102194.50
2022-10-08T12:54:56.869Z,102198.28
2022-10-08T12:57:42.593Z,102198.72
2022-10-08T13:00:20.695Z,102196.00
2022-10-08T13:03:13.135Z,102192.00
2022-10-08T13:05:40.958Z,102190.19
2022-10-08T13:08:29.437Z,102194.78
2022-10-08T13:10:57.527Z,102195.31
2022-10-08T13:13:39.367Z,102201.63
2022-10-08T13:16:09.445Z,102200.66
2022-10-08T13:18:38.075Z,102202.72
2022-10-08T13:21:10.380Z,102201.88
2022-10-08T13:23:45.991Z,102206.53
2022-10-08T13:26:37.172Z,102209.50
2022-10-08T13:29:19.063Z,102211.28
2022-10-08T13:32:03.626Z,102217.44
2022-10-08T13:34:34.993Z,102208.56
2022-10-08T13:37:05.838Z,102219.91
2022-10-08T13:39:37.247Z,102207.94
2022-10-08T13:42:24.778Z,102213.34
2022-10-08T13:44:51.713Z,102225.41
2022-10-08T13:47:20.688Z,102234.03
2022-10-08T13:49:47.746Z,102216.53
2022-10-08T13:52:21.561Z,102222.00
2022-10-08T13:54:49.851Z,102219.31
2022-10-08T13:57:16.588Z,102229.13
2022-10-08T13:59:43.233Z,102233.13
2022-10-08T14:02:14.069Z,102237.03
2022-10-08T14:04:40.910Z,102230.69
2022-10-08T14:07:20.406Z,102237.38
2022-10-08T14:09:47.241Z,102236.19
2022-10-08T14:12:14.173Z,102240.81
2022-10-08T14:14:40.725Z,102233.66
2022-10-08T14:17:07.306Z,102236.00
2022-10-08T14:19:33.891Z,102240.31
2022-10-08T14:22:00.493Z,102245.38
2022-10-08T14:24:27.048Z,102245.19
2022-10-08T14:26:53.677Z,102241.41
2022-10-08T14:29:20.241Z,102241.91
2022-10-08T14:31:46.957Z,102239.59
2022-10-08T14:34:13.533Z,102246.91
2022-10-08T14:36:41.770Z,102236.81
2022-10-08T14:39:09.998Z,102243.03
2022-10-08T14:41:38.095Z,102242.22
2022-10-08T14:44:04.634Z,102245.34
2022-10-08T14:46:31.159Z,102243.63
2022-10-08T14:48:57.994Z,102248.66
2022-10-08T14:51:24.550Z,102250.59
2022-10-08T14:53:52.154Z,102255.72
2022-10-08T14:56:18.802Z,102255.53
2022-10-08T14:58:45.447Z,102252.59
2022-10-08T15:01:12.068Z,102243.00
2022-10-08T15:03:38.638Z,102239.38
2022-10-08T15:06:05.364Z,102239.16
2022-10-08T15:08:31.961Z,102253.53
2022-10-08T15:11:01.695Z,102249.16
2022-10-08T15:13:28.922Z,102258.19
2022-10-08T15:15:55.432Z,102257.50
2022-10-08T15:18:21.915Z,102265.03
2022-10-08T15:21:00.254Z,102257.16
2022-10-08T15:23:27.387Z,102270.66
2022-10-08T15:25:59.447Z,102260.19
2022-10-08T15:28:27.920Z,102261.25
2022-10-08T15:31:22.153Z,102272.03
2022-10-08T15:33:50.696Z,102263.41
2022-10-08T15:36:18.320Z,102267.78
2022-10-08T15:38:45.916Z,102268.94
2022-10-08T15:41:15.052Z,102256.63
2022-10-08T15:43:42.013Z,102269.91
2022-10-08T15:46:11.009Z,102270.66
2022-10-08T15:48:38.527Z,102272.72
2022-10-08T15:51:05.924Z,102269.19
2022-10-08T15:53:36.865Z,102266.72
2022-10-08T15:56:04.459Z,102267.78
2022-10-08T15:58:50.511Z,102268.44
2022-10-08T16:01:19.993Z,102270.81
2022-10-08T16:03:48.638Z,102283.00
2022-10-08T16:06:20.663Z,102285.72
2022-10-08T16:08:47.844Z,102292.66
2022-10-08T16:11:26.559Z,102298.19
2022-10-08T16:13:56.177Z,102300.06
2022-10-08T16:16:23.362Z,102288.56
2022-10-08T16:18:55.868Z,102293.88
2022-10-08T16:21:22.783Z,102298.13
2022-10-08T16:23:49.700Z,102299.06
2022-10-08T16:26:20.539Z,102307.22
2022-10-08T16:28:50.129Z,102307.97
2022-10-08T16:31:17.717Z,102308.09
2022-10-08T16:33:45.593Z,102311.03
2022-10-08T16:36:12.826Z,102301.66
2022-10-08T16:38:40.291Z,102310.22
2022-10-08T16:41:13.782Z,102317.47
2022-10-08T16:43:40.841Z,102320.59
2022-10-08T16:46:18.263Z,102323.91
2022-10-08T16:48:51.468Z,102331.06
2022-10-08T16:51:18.200Z,102322.50
2022-10-08T16:53:49.866Z,102330.84
2022-10-08T16:56:16.758Z,102335.09
2022-10-08T16:58:43.283Z,102335.13
2022-10-08T17:01:10.165Z,102336.91
2022-10-08T17:03:36.970Z,102350.09
2022-10-08T17:06:04.645Z,102349.38
2022-10-08T17:08:31.201Z,102356.47
2022-10-08T17:10:57.708Z,102356.03
2022-10-08T17:13:24.253Z,102351.63
2022-10-08T17:16:00.170Z,102364.34
2022-10-08T17:18:28.355Z,102367.50
2022-10-08T17:20:56.910Z,102368.22
2022-10-08T17:23:25.230Z,102369.66
2022-10-08T17:25:56.823Z,102378.09
2022-10-08T17:28:28.369Z,102380.78
2022-10-08T17:30:57.969Z,102388.19
2022-10-08T17:33:25.776Z,102393.75
2022-10-08T17:36:07.741Z,102401.44
2022-10-08T17:38:35.716Z,102392.88
2022-10-08T17:41:16.856Z,102408.63
2022-10-08T17:43:44.430Z,102401.06
2022-10-08T17:46:16.252Z,102407.00
2022-10-08T17:48:43.201Z,102411.84
2022-10-08T17:51:15.187Z,102410.47
2022-10-08T17:53:42.594Z,102418.09
2022-10-08T17:56:11.649Z,102419.22
2022-10-08T17:58:38.925Z,102420.53
2022-10-08T18:01:09.040Z,102422.84
2022-10-08T18:03:36.871Z,102419.16
2022-10-08T18:06:04.536Z,102418.50
2022-10-08T18:08:31.570Z,102431.31
2022-10-08T18:11:01.669Z,102428.78
2022-10-08T18:13:28.225Z,102424.19
2022-10-08T18:15:54.805Z,102426.25
2022-10-08T18:18:21.380Z,102426.94
2022-10-08T18:20:58.957Z,102427.06
2022-10-08T18:23:27.677Z,102427.66
2022-10-08T18:25:54.261Z,102424.16
2022-10-08T18:28:22.231Z,102439.31
2022-10-08T18:30:49.221Z,102445.06
2022-10-08T18:33:16.035Z,102442.41
2022-10-08T18:35:42.740Z,102449.13
2022-10-08T18:38:09.302Z,102441.03
2022-10-08T18:40:35.872Z,102441.38
2022-10-08T18:43:02.392Z,102444.50
2022-10-08T18:45:28.929Z,102445.50
2022-10-08T18:47:55.491Z,102445.66
2022-10-08T18:50:23.496Z,102449.59
2022-10-08T18:52:50.343Z,102449.31
2022-10-08T18:55:17.156Z,102453.59
2022-10-08T18:57:43.724Z,102454.19
2022-10-08T19:00:10.735Z,102462.56
2022-10-08T19:02:37.729Z,102466.03
2022-10-08T19:05:04.766Z,102466.41
2022-10-08T19:07:31.417Z,102466.16
2022-10-08T19:09:57.911Z,102470.31
2022-10-08T19:12:24.449Z,102469.69
2022-10-08T19:14:51.025Z,102470.13
2022-10-08T19:17:17.570Z,102485.22
2022-10-08T19:19:44.048Z,102484.72
2022-10-08T19:22:10.648Z,102483.84
2022-10-08T19:24:40.840Z,102493.22
2022-10-08T19:27:07.773Z,102485.94
2022-10-08T19:29:35.965Z,102499.03
2022-10-08T19:32:02.671Z,102495.38
2022-10-08T19:34:29.292Z,102506.16
2022-10-08T19:36:56.133Z,102506.56
2022-10-08T19:39:25.554Z,102509.63
2022-10-08T19:41:52.342Z,102523.50
2022-10-08T19:44:19.387Z,102514.91
2022-10-08T19:46:46.479Z,102525.84
2022-10-08T19:49:13.843Z,102512.78
2022-10-08T19:51:40.784Z,102523.03
2022-10-08T19:54:07.458Z,102513.31
2022-10-08T19:56:34.433Z,102516.91
2022-10-08T19:59:01.074Z,102516.22
2022-10-08T20:01:33.815Z,102530.34
2022-10-08T20:04:01.885Z,102525.00
2022-10-08T20:06:31.248Z,102520.13
2022-10-08T20:09:01.050Z,102522.72
2022-10-08T20:11:29.841Z,102526.19
2022-10-08T20:13:57.016Z,102529.13
2022-10-08T20:16:35.542Z,102522.50
2022-10-08T20:19:05.035Z,102518.72
2022-10-08T20:21:34.095Z,102526.34
2022-10-08T20:24:00.969Z,102524.09
2022-10-08T20:26:30.145Z,102527.53
2022-10-08T20:28:59.106Z,102534.91
2022-10-08T20:31:28.751Z,102528.78
2022-10-08T20:34:00.701Z,102521.97
2022-10-08T20:36:28.100Z,102533.31
2022-10-08T20:38:54.967Z,102533.28
2022-10-08T20:41:24.517Z,102525.53
2022-10-08T20:43:56.818Z,102523.06
2022-10-08T20:46:23.515Z,102528.78
2022-10-08T20:48:50.047Z,102534.41
2022-10-08T20:51:21.060Z,102534.97
2022-10-08T20:53:55.388Z,102528.00
2022-10-08T20:56:22.330Z,102534.81
2022-10-08T20:58:49.255Z,102538.91
2022-10-08T21:01:18.924Z,102539.75
2022-10-08T21:03:47.361Z,102550.94
2022-10-08T21:06:16.326Z,102542.81
2022-10-08T21:08:45.057Z,102551.25
2022-10-08T21:11:14.956Z,102551.59
2022-10-08T21:13:42.695Z,102562.63
2022-10-08T21:16:16.542Z,102564.28
2022-10-08T21:18:44.544Z,102554.84
2022-10-08T21:21:13.440Z,102553.72
2022-10-08T21:23:41.204Z,102566.53
2022-10-08T21:26:12.707Z,102565.72
2022-10-08T21:28:40.485Z,102564.44
2022-10-08T21:31:08.234Z,102556.63
2022-10-08T21:33:39.433Z,102565.25
2022-10-08T21:36:07.745Z,102567.03
2022-10-08T21:38:34.360Z,102560.69
2022-10-08T21:41:06.101Z,102561.66
2022-10-08T21:43:32.589Z,102569.63
2022-10-08T21:46:00.997Z,102562.97
2022-10-08T21:48:29.750Z,102572.53
2022-10-08T21:50:56.178Z,102560.84
2022-10-08T21:53:23.044Z,102562.31
2022-10-08T21:55:57.940Z,102554.66
2022-10-08T21:58:29.408Z,102553.69
2022-10-08T22:00:56.022Z,102553.53
2022-10-08T22:03:23.517Z,102559.69
2022-10-08T22:05:52.635Z,102570.09
2022-10-08T22:08:19.700Z,102560.66
2022-10-08T22:10:46.467Z,102558.88
2022-10-08T22:13:12.979Z,102569.06
2022-10-08T22:15:40.044Z,102569.56
2022-10-08T22:18:06.573Z,102565.84
2022-10-08T22:20:35.002Z,102571.53
2022-10-08T22:23:01.500Z,102547.50
2022-10-08T22:25:28.025Z,102564.84
2022-10-08T22:27:54.531Z,102562.75
2022-10-08T22:30:21.013Z,102568.25
2022-10-08T22:32:47.682Z,102570.00
2022-10-08T22:35:14.921Z,102567.28
2022-10-08T22:37:41.401Z,102562.56
2022-10-08T22:40:08.530Z,102566.78
2022-10-08T22:42:35.135Z,102561.41
2022-10-08T22:45:01.636Z,102567.88
2022-10-08T22:47:28.104Z,102562.22
2022-10-08T22:49:54.621Z,102556.53
2022-10-08T22:52:21.208Z,102550.53
2022-10-08T22:54:47.761Z,102550.25
2022-10-08T22:57:14.219Z,102547.34
2022-10-08T22:59:40.720Z,102548.44
2022-10-08T23:02:07.317Z,102536.44
2022-10-08T23:04:34.820Z,102538.56
2022-10-08T23:07:01.301Z,102542.78
2022-10-08T23:09:27.942Z,102540.50
2022-10-08T23:11:54.400Z,102543.59
2022-10-08T23:14:20.880Z,102541.31
2022-10-08T23:16:48.825Z,102539.34
2022-10-08T23:19:16.654Z,102531.88
2022-10-08T23:21:44.452Z,102538.25
2022-10-08T23:24:11.130Z,102533.66
2022-10-08T23:26:37.746Z,102537.41
2022-10-08T23:29:05.005Z,102547.94
2022-10-08T23:31:36.368Z,102549.38
2022-10-08T23:34:04.010Z,102539.34
2022-10-08T23:36:33.875Z,102524.72
2022-10-08T23:39:01.143Z,102540.47
2022-10-08T23:41:28.001Z,102549.53
2022-10-08T23:43:54.776Z,102541.22
2022-10-08T23:46:23.881Z,102549.50
2022-10-08T23:48:51.315Z,102543.78
2022-10-08T23:51:19.571Z,102541.06
2022-10-08T23:53:46.826Z,102541.03
2022-10-08T23:56:14.012Z,102537.72
2022-10-08T23:58:41.257Z,102552.38
